createdAt,value
2023-01-01T00:00:16.788Z,1001.82
2023-01-01T00:00:49.215Z,1001.76
2023-01-01T00:01:21.636Z,1001.84
2023-01-01T00:01:54.178Z,1001.86
2023-01-01T00:02:29.262Z,1001.85
2023-01-01T00:02:59.126Z,1001.89
2023-01-01T00:03:31.672Z,1001.96
2023-01-01T00:04:04.075Z,1001.97
2023-01-01T00:04:36.541Z,1001.89
2023-01-01T00:05:09.104Z,1001.93
2023-01-01T00:05:41.547Z,1001.94
2023-01-01T00:06:14.066Z,1001.88
2023-01-01T00:06:46.532Z,1001.89
2023-01-01T00:07:18.964Z,1001.95
2023-01-01T00:07:51.425Z,1001.88
2023-01-01T00:08:24.047Z,1001.86
2023-01-01T00:08:56.569Z,1001.88
2023-01-01T00:09:29.065Z,1001.88
2023-01-01T00:10:01.491Z,1001.94
2023-01-01T00:10:34.007Z,1001.90
2023-01-01T00:11:06.489Z,1001.93
2023-01-01T00:11:38.917Z,1001.88
2023-01-01T00:12:11.435Z,1001.91
2023-01-01T00:12:43.862Z,1001.94
2023-01-01T00:13:16.356Z,1001.87
2023-01-01T00:13:48.824Z,1001.92
2023-01-01T00:14:21.339Z,1001.90
2023-01-01T00:14:53.927Z,1001.87
2023-01-01T00:15:26.442Z,1001.86
2023-01-01T00:15:58.944Z,1001.84
2023-01-01T00:16:31.493Z,1001.87
2023-01-01T00:17:03.954Z,1001.83
2023-01-01T00:17:36.441Z,1001.95
2023-01-01T00:18:08.881Z,1002.11
2023-01-01T00:18:41.332Z,1002.00
2023-01-01T00:19:13.802Z,1002.06
2023-01-01T00:19:46.247Z,1002.10
2023-01-01T00:20:18.788Z,1001.98
2023-01-01T00:20:51.283Z,1002.02
2023-01-01T00:21:23.767Z,1002.00
2023-01-01T00:21:56.210Z,1002.00
2023-01-01T00:22:53.225Z,1002.02
2023-01-01T00:23:01.111Z,1001.95
2023-01-01T00:23:33.650Z,1001.97
2023-01-01T00:24:06.137Z,1001.96
2023-01-01T00:24:38.625Z,1001.99
2023-01-01T00:25:11.103Z,1002.11
2023-01-01T00:25:43.557Z,1002.02
2023-01-01T00:26:15.984Z,1002.01
2023-01-01T00:26:48.486Z,1001.96
2023-01-01T00:27:21.048Z,1002.06
2023-01-01T00:27:53.488Z,1002.10
2023-01-01T00:28:26.046Z,1002.05
2023-01-01T00:28:58.544Z,1002.19
2023-01-01T00:29:31.047Z,1002.05
2023-01-01T00:30:03.545Z,1002.03
2023-01-01T00:30:36.005Z,1002.02
2023-01-01T00:31:08.544Z,1002.04
2023-01-01T00:31:40.993Z,1002.06
2023-01-01T00:32:16.470Z,1002.13
2023-01-01T00:32:54.759Z,1002.16
2023-01-01T00:33:18.464Z,1002.17
2023-01-01T00:33:50.987Z,1002.13
2023-01-01T00:34:23.471Z,1002.14
2023-01-01T00:34:55.910Z,1002.05
2023-01-01T00:35:28.358Z,1002.01
2023-01-01T00:36:00.859Z,1002.06
2023-01-01T00:36:33.367Z,1002.11
2023-01-01T00:37:05.946Z,1002.06
2023-01-01T00:37:43.300Z,1002.01
2023-01-01T00:38:10.993Z,1001.84
2023-01-01T00:38:43.461Z,1002.04
2023-01-01T00:39:15.879Z,1002.10
2023-01-01T00:39:48.379Z,1002.02
2023-01-01T00:40:20.859Z,1002.08
2023-01-01T00:40:54.015Z,1002.04
2023-01-01T00:41:26.467Z,1002.10
2023-01-01T00:41:58.958Z,1002.24
2023-01-01T00:42:31.441Z,1002.02
2023-01-01T00:43:03.871Z,1002.02
2023-01-01T00:43:36.297Z,1002.02
2023-01-01T00:44:08.737Z,1002.12
2023-01-01T00:44:41.244Z,1002.11
2023-01-01T00:45:20.550Z,1002.10
2023-01-01T00:45:46.250Z,1002.01
2023-01-01T00:46:18.745Z,1002.01
2023-01-01T00:46:51.287Z,1002.10
2023-01-01T00:47:23.801Z,1001.99
2023-01-01T00:47:56.327Z,1002.03
2023-01-01T00:48:28.848Z,1001.97
2023-01-01T00:49:01.342Z,1002.02
2023-01-01T00:49:33.861Z,1001.98
2023-01-01T00:50:06.342Z,1002.05
2023-01-01T00:50:38.807Z,1002.03
2023-01-01T00:51:11.290Z,1002.09
2023-01-01T00:51:43.718Z,1002.15
2023-01-01T00:52:16.254Z,1001.98
2023-01-01T00:52:48.753Z,1002.12
2023-01-01T00:53:21.311Z,1002.08
2023-01-01T00:53:53.794Z,1002.04
2023-01-01T00:54:26.308Z,1001.99
2023-01-01T00:54:58.814Z,1002.03
2023-01-01T00:55:31.338Z,1002.00
2023-01-01T00:56:03.831Z,1001.95
2023-01-01T00:56:36.330Z,1001.99
2023-01-01T00:57:08.770Z,1002.09
2023-01-01T00:57:41.204Z,1002.01
2023-01-01T00:58:13.625Z,1002.07
2023-01-01T00:58:46.111Z,1002.04
2023-01-01T00:59:20.597Z,1002.03
2023-01-01T00:59:51.013Z,1002.02
2023-01-01T01:00:23.526Z,1002.07
2023-01-01T01:00:56.063Z,1002.04
2023-01-01T01:01:28.641Z,1002.04
2023-01-01T01:02:01.255Z,1002.10
2023-01-01T01:02:33.713Z,1002.05
2023-01-01T01:03:06.203Z,1002.07
2023-01-01T01:03:38.642Z,1002.09
2023-01-01T01:04:11.092Z,1002.03
2023-01-01T01:04:43.531Z,1002.07
2023-01-01T01:05:16.014Z,1002.08
2023-01-01T01:05:48.445Z,1002.00
2023-01-01T01:06:20.894Z,1002.06
2023-01-01T01:06:53.390Z,1002.07
2023-01-01T01:07:25.898Z,1002.01
2023-01-01T01:07:58.387Z,1002.01
2023-01-01T01:08:31.443Z,1002.08
2023-01-01T01:09:03.344Z,1002.12
2023-01-01T01:09:35.849Z,1002.10
2023-01-01T01:10:08.296Z,1002.12
2023-01-01T01:10:40.748Z,1002.06
2023-01-01T01:11:13.192Z,1002.07
2023-01-01T01:11:45.643Z,1002.08
2023-01-01T01:12:19.172Z,1002.00
2023-01-01T01:12:50.572Z,1002.17
2023-01-01T01:13:23.028Z,1002.02
2023-01-01T01:13:55.506Z,1002.03
2023-01-01T01:14:27.932Z,1002.07
2023-01-01T01:15:00.380Z,1002.08
2023-01-01T01:15:32.839Z,1002.12
2023-01-01T01:16:05.336Z,1002.14
2023-01-01T01:16:37.932Z,1002.04
2023-01-01T01:17:10.300Z,1002.07
2023-01-01T01:17:42.865Z,1002.08
2023-01-01T01:18:15.335Z,1002.18
2023-01-01T01:18:47.774Z,1002.24
2023-01-01T01:19:20.244Z,1002.09
2023-01-01T01:19:52.685Z,1002.19
2023-01-01T01:20:25.128Z,1002.13
2023-01-01T01:20:57.565Z,1002.08
2023-01-01T01:21:30.036Z,1002.07
2023-01-01T01:22:02.479Z,1002.14
2023-01-01T01:22:34.951Z,1002.10
2023-01-01T01:23:07.422Z,1002.08
2023-01-01T01:23:39.862Z,1002.00
2023-01-01T01:24:12.364Z,1002.11
2023-01-01T01:24:44.784Z,1002.05
2023-01-01T01:25:17.217Z,1002.10
2023-01-01T01:25:49.727Z,1002.09
2023-01-01T01:26:22.138Z,1002.04
2023-01-01T01:26:54.653Z,1002.10
2023-01-01T01:27:27.165Z,1002.13
2023-01-01T01:27:59.634Z,1002.05
2023-01-01T01:28:32.250Z,1002.01
2023-01-01T01:29:04.720Z,1002.12
2023-01-01T01:29:37.242Z,1002.12
2023-01-01T01:30:09.674Z,1002.10
2023-01-01T01:30:42.257Z,1002.14
2023-01-01T01:31:14.816Z,1002.22
2023-01-01T01:31:47.253Z,1002.10
2023-01-01T01:32:19.716Z,1002.19
2023-01-01T01:32:52.153Z,1002.14
2023-01-01T01:33:25.290Z,1002.08
2023-01-01T01:33:58.365Z,1002.10
2023-01-01T01:34:30.278Z,1002.17
2023-01-01T01:35:02.771Z,1002.19
2023-01-01T01:35:35.212Z,1002.21
2023-01-01T01:36:07.619Z,1002.29
2023-01-01T01:36:40.078Z,1002.26
2023-01-01T01:37:12.561Z,1002.21
2023-01-01T01:37:45.039Z,1002.30
2023-01-01T01:38:17.488Z,1002.25
2023-01-01T01:38:49.926Z,1002.31
2023-01-01T01:39:22.395Z,1002.23
2023-01-01T01:39:54.843Z,1002.37
2023-01-01T01:40:27.323Z,1002.35
2023-01-01T01:40:59.867Z,1002.27
2023-01-01T01:41:32.374Z,1002.27
2023-01-01T01:42:04.887Z,1002.25
2023-01-01T01:42:37.321Z,1002.25
2023-01-01T01:43:09.822Z,1002.30
2023-01-01T01:43:42.383Z,1002.22
2023-01-01T01:44:14.891Z,1002.36
2023-01-01T01:44:47.363Z,1002.22
2023-01-01T01:45:19.849Z,1002.23
2023-01-01T01:45:52.362Z,1002.29
2023-01-01T01:46:24.957Z,1002.27
2023-01-01T01:46:57.418Z,1002.34
2023-01-01T01:47:29.966Z,1002.42
2023-01-01T01:48:02.503Z,1002.43
2023-01-01T01:48:34.961Z,1002.38
2023-01-01T01:49:07.416Z,1002.39
2023-01-01T01:49:39.897Z,1002.44
2023-01-01T01:50:12.343Z,1002.39
2023-01-01T01:50:44.970Z,1002.46
2023-01-01T01:51:17.590Z,1002.45
2023-01-01T01:51:50.042Z,1002.58
2023-01-01T01:52:22.483Z,1002.46
2023-01-01T01:52:54.960Z,1002.49
2023-01-01T01:53:27.406Z,1002.52
2023-01-01T01:53:59.874Z,1002.50
2023-01-01T01:54:32.337Z,1002.50
2023-01-01T01:55:04.772Z,1002.46
2023-01-01T01:55:37.222Z,1002.47
2023-01-01T01:56:09.660Z,1002.56
2023-01-01T01:56:42.097Z,1002.45
2023-01-01T01:57:14.583Z,1002.51
2023-01-01T01:57:47.064Z,1002.50
2023-01-01T01:58:19.516Z,1002.51
2023-01-01T01:58:51.987Z,1002.55
2023-01-01T01:59:24.423Z,1002.46
2023-01-01T01:59:56.941Z,1002.49
2023-01-01T02:00:29.416Z,1002.51
2023-01-01T02:01:02.066Z,1002.45
2023-01-01T02:01:34.487Z,1002.44
2023-01-01T02:02:06.962Z,1002.44
2023-01-01T02:02:39.539Z,1002.42
2023-01-01T02:03:11.881Z,1002.51
2023-01-01T02:03:44.281Z,1002.52
2023-01-01T02:04:16.718Z,1002.51
2023-01-01T02:04:49.289Z,1002.50
2023-01-01T02:05:21.794Z,1002.50
2023-01-01T02:05:54.303Z,1002.43
2023-01-01T02:06:26.872Z,1002.38
2023-01-01T02:06:59.348Z,1002.35
2023-01-01T02:07:31.827Z,1002.40
2023-01-01T02:08:04.315Z,1002.42
2023-01-01T02:08:36.812Z,1002.50
2023-01-01T02:09:09.320Z,1002.53
2023-01-01T02:09:41.824Z,1002.49
2023-01-01T02:10:14.290Z,1002.55
2023-01-01T02:10:46.732Z,1002.52
2023-01-01T02:11:21.961Z,1002.62
2023-01-01T02:11:51.752Z,1002.55
2023-01-01T02:12:24.250Z,1002.61
2023-01-01T02:12:56.740Z,1002.61
2023-01-01T02:13:29.294Z,1002.49
2023-01-01T02:14:01.957Z,1002.52
2023-01-01T02:14:34.428Z,1002.33
2023-01-01T02:15:06.884Z,1002.34
2023-01-01T02:15:39.401Z,1002.45
2023-01-01T02:16:11.944Z,1002.48
2023-01-01T02:16:44.360Z,1002.51
2023-01-01T02:17:16.939Z,1002.42
2023-01-01T02:17:49.428Z,1002.48
2023-01-01T02:18:21.897Z,1002.47
2023-01-01T02:18:54.395Z,1002.47
2023-01-01T02:19:26.872Z,1002.51
2023-01-01T02:19:59.388Z,1002.46
2023-01-01T02:20:31.886Z,1002.41
2023-01-01T02:21:04.442Z,1002.42
2023-01-01T02:21:36.911Z,1002.45
2023-01-01T02:22:09.374Z,1002.46
2023-01-01T02:22:42.026Z,1002.50
2023-01-01T02:23:14.491Z,1002.51
2023-01-01T02:23:47.021Z,1002.48
2023-01-01T02:24:19.561Z,1002.52
2023-01-01T02:24:52.018Z,1002.54
2023-01-01T02:25:24.542Z,1002.51
2023-01-01T02:25:57.002Z,1002.46
2023-01-01T02:26:29.442Z,1002.47
2023-01-01T02:27:01.881Z,1002.54
2023-01-01T02:27:34.346Z,1002.54
2023-01-01T02:28:06.924Z,1002.40
2023-01-01T02:28:39.378Z,1002.43
2023-01-01T02:29:11.826Z,1002.49
2023-01-01T02:29:44.251Z,1002.63
2023-01-01T02:30:16.711Z,1002.52
2023-01-01T02:30:49.319Z,1002.58
2023-01-01T02:31:23.529Z,1002.45
2023-01-01T02:31:54.279Z,1002.42
2023-01-01T02:32:26.731Z,1002.46
2023-01-01T02:32:59.217Z,1002.44
2023-01-01T02:33:31.733Z,1002.51
2023-01-01T02:34:04.241Z,1002.41
2023-01-01T02:34:36.750Z,1002.41
2023-01-01T02:35:09.232Z,1002.44
2023-01-01T02:35:41.778Z,1002.44
2023-01-01T02:36:14.324Z,1002.38
2023-01-01T02:36:46.866Z,1002.50
2023-01-01T02:37:19.365Z,1002.58
2023-01-01T02:37:51.805Z,1002.48
2023-01-01T02:38:24.250Z,1002.52
2023-01-01T02:38:56.741Z,1002.52
2023-01-01T02:39:29.216Z,1002.52
2023-01-01T02:40:01.675Z,1002.57
2023-01-01T02:40:34.192Z,1002.50
2023-01-01T02:41:06.711Z,1002.56
2023-01-01T02:41:39.207Z,1002.45
2023-01-01T02:42:11.658Z,1002.47
2023-01-01T02:42:44.184Z,1002.44
2023-01-01T02:43:21.489Z,1002.46
2023-01-01T02:43:49.133Z,1002.48
2023-01-01T02:44:21.614Z,1002.53
2023-01-01T02:44:54.117Z,1002.57
2023-01-01T02:45:26.636Z,1002.57
2023-01-01T02:45:59.128Z,1002.58
2023-01-01T02:46:31.534Z,1002.54
2023-01-01T02:47:03.995Z,1002.55
2023-01-01T02:47:36.484Z,1002.57
2023-01-01T02:48:09.025Z,1002.55
2023-01-01T02:48:41.583Z,1002.58
2023-01-01T02:49:14.065Z,1002.53
2023-01-01T02:49:46.651Z,1002.55
2023-01-01T02:50:19.142Z,1002.57
2023-01-01T02:50:51.595Z,1002.50
2023-01-01T02:51:24.066Z,1002.57
2023-01-01T02:51:56.543Z,1002.57
2023-01-01T02:52:28.984Z,1002.51
2023-01-01T02:53:01.647Z,1002.46
2023-01-01T02:53:34.162Z,1002.45
2023-01-01T02:54:06.621Z,1002.57
2023-01-01T02:54:39.133Z,1002.58
2023-01-01T02:55:11.561Z,1002.65
2023-01-01T02:55:44.108Z,1002.56
2023-01-01T02:56:16.649Z,1002.61
2023-01-01T02:56:49.134Z,1002.58
2023-01-01T02:57:21.586Z,1002.63
2023-01-01T02:57:54.035Z,1002.68
2023-01-01T02:58:26.553Z,1002.64
2023-01-01T02:58:58.982Z,1002.69
2023-01-01T02:59:31.444Z,1002.69
2023-01-01T03:00:03.973Z,1002.59
2023-01-01T03:00:36.493Z,1002.65
2023-01-01T03:01:09.125Z,1002.71
2023-01-01T03:01:41.598Z,1002.72
2023-01-01T03:02:14.169Z,1002.69
2023-01-01T03:02:50.718Z,1002.70
2023-01-01T03:03:19.044Z,1002.71
2023-01-01T03:03:51.521Z,1002.70
2023-01-01T03:04:23.983Z,1002.68
2023-01-01T03:04:56.445Z,1002.70
2023-01-01T03:05:28.965Z,1002.71
2023-01-01T03:06:01.449Z,1002.68
2023-01-01T03:06:33.938Z,1002.64
2023-01-01T03:07:06.377Z,1002.67
2023-01-01T03:07:38.888Z,1002.66
2023-01-01T03:08:11.409Z,1002.57
2023-01-01T03:08:43.928Z,1002.59
2023-01-01T03:09:16.470Z,1002.61
2023-01-01T03:09:49.063Z,1002.62
2023-01-01T03:10:21.560Z,1002.62
2023-01-01T03:10:54.048Z,1002.70
2023-01-01T03:11:26.529Z,1002.72
2023-01-01T03:11:59.041Z,1002.68
2023-01-01T03:12:31.531Z,1002.70
2023-01-01T03:13:03.964Z,1002.65
2023-01-01T03:13:36.412Z,1002.72
2023-01-01T03:14:08.869Z,1002.69
2023-01-01T03:14:41.374Z,1002.73
2023-01-01T03:15:13.880Z,1002.80
2023-01-01T03:15:46.448Z,1002.83
2023-01-01T03:16:18.901Z,1002.80
2023-01-01T03:16:51.362Z,1002.82
2023-01-01T03:17:23.818Z,1002.82
2023-01-01T03:17:56.289Z,1002.81
2023-01-01T03:18:28.752Z,1002.86
2023-01-01T03:19:01.309Z,1002.81
2023-01-01T03:19:33.816Z,1002.83
2023-01-01T03:20:06.293Z,1002.97
2023-01-01T03:20:38.748Z,1002.98
2023-01-01T03:23:08.215Z,1002.88
2023-01-01T03:23:44.515Z,1002.85
2023-01-01T03:24:13.159Z,1002.89
2023-01-01T03:24:45.645Z,1002.96
2023-01-01T03:25:18.157Z,1002.92
2023-01-01T03:25:50.630Z,1002.93
2023-01-01T03:26:23.110Z,1002.83
2023-01-01T03:26:55.631Z,1002.88
2023-01-01T03:27:28.153Z,1002.92
2023-01-01T03:28:00.702Z,1002.93
2023-01-01T03:28:33.147Z,1002.91
2023-01-01T03:29:05.607Z,1002.89
2023-01-01T03:29:38.073Z,1002.87
2023-01-01T03:30:10.534Z,1002.86
2023-01-01T03:30:42.963Z,1002.89
2023-01-01T03:31:15.403Z,1002.90
2023-01-01T03:31:47.873Z,1002.86
2023-01-01T03:32:20.392Z,1002.88
2023-01-01T03:32:52.877Z,1002.84
2023-01-01T03:33:25.361Z,1002.81
2023-01-01T03:33:57.767Z,1002.81
2023-01-01T03:34:37.305Z,1002.76
2023-01-01T03:35:09.790Z,1002.83
2023-01-01T03:35:42.209Z,1002.84
2023-01-01T03:36:14.657Z,1002.86
2023-01-01T03:36:47.142Z,1002.84
2023-01-01T03:37:19.632Z,1002.86
2023-01-01T03:37:52.095Z,1002.78
2023-01-01T03:38:24.552Z,1002.79
2023-01-01T03:38:57.089Z,1002.82
2023-01-01T03:39:29.640Z,1002.86
2023-01-01T03:40:02.096Z,1002.87
2023-01-01T03:40:34.527Z,1002.91
2023-01-01T03:41:06.964Z,1002.89
2023-01-01T03:41:39.458Z,1002.87
2023-01-01T03:42:11.939Z,1002.84
2023-01-01T03:42:44.387Z,1002.83
2023-01-01T03:43:16.813Z,1002.84
2023-01-01T03:43:49.543Z,1002.75
2023-01-01T03:44:21.944Z,1002.82
2023-01-01T03:44:54.396Z,1002.75
2023-01-01T03:45:26.845Z,1002.76
2023-01-01T03:45:59.311Z,1002.80
2023-01-01T03:46:31.777Z,1002.83
2023-01-01T03:47:04.235Z,1002.75
2023-01-01T03:47:36.627Z,1002.79
2023-01-01T03:48:09.106Z,1002.74
2023-01-01T03:48:41.627Z,1002.77
2023-01-01T03:49:14.201Z,1002.80
2023-01-01T03:49:46.698Z,1002.80
2023-01-01T03:50:19.196Z,1002.82
2023-01-01T03:50:51.703Z,1002.85
2023-01-01T03:51:24.200Z,1002.87
2023-01-01T03:51:56.643Z,1002.87
2023-01-01T03:52:29.074Z,1002.89
2023-01-01T03:53:01.508Z,1002.84
2023-01-01T03:53:34.029Z,1002.80
2023-01-01T03:54:06.537Z,1002.83
2023-01-01T03:54:38.975Z,1002.79
2023-01-01T03:55:11.415Z,1002.85
2023-01-01T03:55:43.896Z,1002.85
2023-01-01T03:56:16.415Z,1002.87
2023-01-01T03:56:48.932Z,1002.83
2023-01-01T03:57:21.424Z,1002.83
2023-01-01T03:57:53.899Z,1002.84
2023-01-01T03:58:26.374Z,1002.85
2023-01-01T03:58:58.802Z,1002.82
2023-01-01T03:59:31.301Z,1002.85
2023-01-01T04:00:03.742Z,1002.90
2023-01-01T04:00:36.209Z,1002.86
2023-01-01T04:01:08.777Z,1002.87
2023-01-01T04:01:41.268Z,1002.85
2023-01-01T04:02:13.648Z,1002.96
2023-01-01T04:02:46.175Z,1002.85
2023-01-01T04:03:18.671Z,1002.88
2023-01-01T04:03:51.117Z,1002.92
2023-01-01T04:04:23.605Z,1002.93
2023-01-01T04:04:56.082Z,1002.84
2023-01-01T04:05:28.589Z,1002.91
2023-01-01T04:06:01.130Z,1002.80
2023-01-01T04:06:33.598Z,1002.90
2023-01-01T04:07:14.921Z,1002.91
2023-01-01T04:07:38.573Z,1002.89
2023-01-01T04:08:11.034Z,1002.90
2023-01-01T04:08:43.495Z,1002.93
2023-01-01T04:09:15.965Z,1002.89
2023-01-01T04:09:48.420Z,1002.90
2023-01-01T04:10:20.873Z,1002.87
2023-01-01T04:10:53.435Z,1002.90
2023-01-01T04:11:25.906Z,1002.82
2023-01-01T04:11:58.365Z,1002.85
2023-01-01T04:12:30.829Z,1002.85
2023-01-01T04:13:03.323Z,1002.90
2023-01-01T04:13:35.896Z,1002.95
2023-01-01T04:14:08.452Z,1003.00
2023-01-01T04:14:40.908Z,1003.03
2023-01-01T04:15:13.390Z,1003.04
2023-01-01T04:15:45.859Z,1003.03
2023-01-01T04:16:18.299Z,1003.10
2023-01-01T04:16:50.791Z,1003.07
2023-01-01T04:17:23.331Z,1003.06
2023-01-01T04:17:55.796Z,1003.12
2023-01-01T04:18:28.246Z,1003.01
2023-01-01T04:19:00.743Z,1003.06
2023-01-01T04:19:33.174Z,1003.12
2023-01-01T04:20:05.634Z,1003.10
2023-01-01T04:20:38.070Z,1003.10
2023-01-01T04:21:10.587Z,1003.09
2023-01-01T04:21:43.085Z,1003.10
2023-01-01T04:22:15.538Z,1003.15
2023-01-01T04:22:47.984Z,1003.05
2023-01-01T04:23:20.513Z,1003.08
2023-01-01T04:23:53.064Z,1003.11
2023-01-01T04:24:25.545Z,1003.17
2023-01-01T04:24:57.982Z,1003.16
2023-01-01T04:25:30.467Z,1003.18
2023-01-01T04:26:03.006Z,1003.18
2023-01-01T04:26:35.568Z,1003.13
2023-01-01T04:27:08.021Z,1003.17
2023-01-01T04:27:40.561Z,1003.11
2023-01-01T04:28:13.066Z,1003.04
2023-01-01T04:28:45.561Z,1003.04
2023-01-01T04:29:18.062Z,1003.03
2023-01-01T04:29:50.553Z,1003.08
2023-01-01T04:30:23.062Z,1003.01
2023-01-01T04:32:19.166Z,1002.98
2023-01-01T04:32:51.635Z,1003.00
2023-01-01T04:33:24.066Z,1003.02
2023-01-01T04:33:56.503Z,1003.03
2023-01-01T04:34:29.059Z,1002.97
2023-01-01T04:35:01.541Z,1003.02
2023-01-01T04:35:34.061Z,1003.05
2023-01-01T04:36:06.582Z,1003.08
2023-01-01T04:36:39.028Z,1003.05
2023-01-01T04:37:13.449Z,1003.06
2023-01-01T04:37:43.916Z,1002.99
2023-01-01T04:38:16.381Z,1003.08
2023-01-01T04:38:48.843Z,1003.06
2023-01-01T04:39:21.437Z,1003.06
2023-01-01T04:39:53.974Z,1003.09
2023-01-01T04:40:26.503Z,1003.10
2023-01-01T04:40:59.002Z,1003.12
2023-01-01T04:41:31.486Z,1003.08
2023-01-01T04:42:03.909Z,1003.13
2023-01-01T04:42:36.504Z,1003.13
2023-01-01T04:43:08.923Z,1003.10
2023-01-01T04:43:41.441Z,1003.07
2023-01-01T04:44:13.954Z,1003.11
2023-01-01T04:44:46.523Z,1003.10
2023-01-01T04:45:19.015Z,1003.12
2023-01-01T04:45:51.554Z,1003.14
2023-01-01T04:46:24.051Z,1003.16
2023-01-01T04:47:00.114Z,1003.26
2023-01-01T04:47:29.105Z,1003.33
2023-01-01T04:48:01.615Z,1003.33
2023-01-01T04:48:34.138Z,1003.39
2023-01-01T04:49:06.665Z,1003.38
2023-01-01T04:49:39.112Z,1003.45
2023-01-01T04:50:11.553Z,1003.44
2023-01-01T04:50:44.073Z,1003.46
2023-01-01T04:51:16.554Z,1003.41
2023-01-01T04:51:49.042Z,1003.41
2023-01-01T04:52:21.490Z,1003.55
2023-01-01T04:52:53.958Z,1003.46
2023-01-01T04:53:26.395Z,1003.54
2023-01-01T04:53:58.876Z,1003.47
2023-01-01T04:54:31.317Z,1003.41
2023-01-01T04:55:03.769Z,1003.37
2023-01-01T04:55:36.216Z,1003.39
2023-01-01T04:56:08.684Z,1003.45
2023-01-01T04:56:41.217Z,1003.50
2023-01-01T04:57:13.742Z,1003.47
2023-01-01T04:57:46.198Z,1003.49
2023-01-01T04:58:18.674Z,1003.55
2023-01-01T04:58:51.213Z,1003.57
2023-01-01T04:59:23.709Z,1003.53
2023-01-01T04:59:56.198Z,1003.55
2023-01-01T05:00:28.607Z,1003.53
2023-01-01T05:01:01.278Z,1003.46
2023-01-01T05:01:33.690Z,1003.43
2023-01-01T05:02:06.161Z,1003.41
2023-01-01T05:02:38.653Z,1003.42
2023-01-01T05:03:11.006Z,1003.38
2023-01-01T05:03:43.444Z,1003.45
2023-01-01T05:04:15.979Z,1003.44
2023-01-01T05:04:48.439Z,1003.28
2023-01-01T05:05:20.939Z,1003.30
2023-01-01T05:05:53.413Z,1003.28
2023-01-01T05:06:25.851Z,1003.32
2023-01-01T05:06:58.341Z,1003.29
2023-01-01T05:07:30.814Z,1003.34
2023-01-01T05:08:03.251Z,1003.41
2023-01-01T05:08:35.699Z,1003.33
2023-01-01T05:09:08.274Z,1003.39
2023-01-01T05:09:40.727Z,1003.50
2023-01-01T05:10:13.225Z,1003.54
2023-01-01T05:10:45.683Z,1003.53
2023-01-01T05:11:18.142Z,1003.54
2023-01-01T05:11:50.598Z,1003.59
2023-01-01T05:12:23.029Z,1003.68
2023-01-01T05:12:55.542Z,1003.65
2023-01-01T05:13:28.029Z,1003.61
2023-01-01T05:14:00.612Z,1003.60
2023-01-01T05:14:33.096Z,1003.60
2023-01-01T05:15:05.587Z,1003.56
2023-01-01T05:15:38.045Z,1003.48
2023-01-01T05:16:10.556Z,1003.53
2023-01-01T05:16:43.083Z,1003.55
2023-01-01T05:17:15.592Z,1003.52
2023-01-01T05:17:48.068Z,1003.46
2023-01-01T05:18:20.584Z,1003.47
2023-01-01T05:18:53.094Z,1003.47
2023-01-01T05:19:25.597Z,1003.50
2023-01-01T05:19:58.113Z,1003.51
2023-01-01T05:20:30.629Z,1003.58
2023-01-01T05:21:03.076Z,1003.58
2023-01-01T05:21:35.603Z,1003.60
2023-01-01T05:22:10.844Z,1003.59
2023-01-01T05:22:40.694Z,1003.69
2023-01-01T05:23:13.187Z,1003.51
2023-01-01T05:23:45.693Z,1003.56
2023-01-01T05:24:18.211Z,1003.63
2023-01-01T05:24:50.757Z,1003.65
2023-01-01T05:25:23.245Z,1003.62
2023-01-01T05:25:55.796Z,1003.57
2023-01-01T05:26:28.285Z,1003.55
2023-01-01T05:27:00.747Z,1003.56
2023-01-01T05:27:33.210Z,1003.51
2023-01-01T05:28:05.681Z,1003.54
2023-01-01T05:28:38.198Z,1003.54
2023-01-01T05:29:15.984Z,1003.49
2023-01-01T05:29:43.187Z,1003.45
2023-01-01T05:30:15.688Z,1003.49
2023-01-01T05:30:48.209Z,1003.44
2023-01-01T05:31:20.741Z,1003.50
2023-01-01T05:31:53.327Z,1003.42
2023-01-01T05:32:25.771Z,1003.47
2023-01-01T05:32:58.409Z,1003.47
2023-01-01T05:33:30.906Z,1003.49
2023-01-01T05:35:27.016Z,1003.53
2023-01-01T05:35:59.497Z,1003.59
2023-01-01T05:36:31.947Z,1003.48
2023-01-01T05:37:04.380Z,1003.55
2023-01-01T05:37:36.930Z,1003.60
2023-01-01T05:38:09.489Z,1003.59
2023-01-01T05:38:42.075Z,1003.68
2023-01-01T05:39:14.636Z,1003.63
2023-01-01T05:39:47.108Z,1003.62
2023-01-01T05:40:19.637Z,1003.54
2023-01-01T05:40:52.153Z,1003.53
2023-01-01T05:41:24.652Z,1003.52
2023-01-01T05:41:57.082Z,1003.50
2023-01-01T05:42:29.517Z,1003.55
2023-01-01T05:43:01.984Z,1003.50
2023-01-01T05:43:34.558Z,1003.53
2023-01-01T05:44:07.052Z,1003.49
2023-01-01T05:44:39.563Z,1003.45
2023-01-01T05:45:12.066Z,1003.50
2023-01-01T05:45:44.627Z,1003.46
2023-01-01T05:46:17.120Z,1003.53
2023-01-01T05:46:56.586Z,1003.46
2023-01-01T05:47:30.068Z,1003.49
2023-01-01T05:48:01.580Z,1003.45
2023-01-01T05:48:34.074Z,1003.50
2023-01-01T05:49:06.544Z,1003.51
2023-01-01T05:49:38.973Z,1003.55
2023-01-01T05:52:58.548Z,1003.66
2023-01-01T05:53:31.139Z,1003.75
2023-01-01T05:54:03.585Z,1003.80
2023-01-01T05:54:36.068Z,1003.86
2023-01-01T05:55:08.535Z,1003.84
2023-01-01T05:55:41.025Z,1003.91
2023-01-01T05:56:13.499Z,1003.96
2023-01-01T05:56:45.969Z,1003.98
2023-01-01T05:57:18.449Z,1003.98
2023-01-01T05:57:50.904Z,1003.98
2023-01-01T05:58:23.343Z,1004.02
2023-01-01T05:58:55.811Z,1004.06
2023-01-01T05:59:28.241Z,1004.11
2023-01-01T06:00:00.680Z,1004.02
2023-01-01T06:00:33.099Z,1004.00
2023-01-01T06:01:05.532Z,1003.98
2023-01-01T06:01:43.481Z,1004.00
2023-01-01T06:02:10.496Z,1004.03
2023-01-01T06:02:42.956Z,1004.06
2023-01-01T06:03:15.370Z,1004.03
2023-01-01T06:03:47.873Z,1004.04
2023-01-01T06:04:20.455Z,1004.12
2023-01-01T06:04:52.926Z,1004.09
2023-01-01T06:05:25.377Z,1004.14
2023-01-01T06:05:57.846Z,1004.05
2023-01-01T06:06:30.352Z,1004.13
2023-01-01T06:07:02.774Z,1004.17
2023-01-01T06:07:35.299Z,1004.18
2023-01-01T06:08:07.792Z,1004.24
2023-01-01T06:08:40.296Z,1004.24
2023-01-01T06:09:12.792Z,1004.27
2023-01-01T06:09:45.227Z,1004.36
2023-01-01T06:10:17.662Z,1004.39
2023-01-01T06:10:50.148Z,1004.42
2023-01-01T06:11:22.640Z,1004.44
2023-01-01T06:11:55.150Z,1004.41
2023-01-01T06:12:27.631Z,1004.38
2023-01-01T06:13:00.149Z,1004.41
2023-01-01T06:13:32.652Z,1004.44
2023-01-01T06:14:05.069Z,1004.45
2023-01-01T06:14:37.503Z,1004.48
2023-01-01T06:15:10.022Z,1004.50
2023-01-01T06:15:42.537Z,1004.49
2023-01-01T06:16:15.026Z,1004.48
2023-01-01T06:16:47.464Z,1004.52
2023-01-01T06:17:19.920Z,1004.54
2023-01-01T06:17:52.425Z,1004.45
2023-01-01T06:18:24.844Z,1004.42
2023-01-01T06:18:57.350Z,1004.40
2023-01-01T06:19:29.763Z,1004.45
2023-01-01T06:20:02.207Z,1004.43
2023-01-01T06:20:34.663Z,1004.39
2023-01-01T06:21:07.116Z,1004.39
2023-01-01T06:21:39.544Z,1004.40
2023-01-01T06:22:11.961Z,1004.39
2023-01-01T06:22:44.394Z,1004.46
2023-01-01T06:23:16.854Z,1004.47
2023-01-01T06:23:49.263Z,1004.45
2023-01-01T06:24:21.740Z,1004.45
2023-01-01T06:24:54.203Z,1004.41
2023-01-01T06:25:26.696Z,1004.41
2023-01-01T06:25:59.192Z,1004.36
2023-01-01T06:26:31.678Z,1004.36
2023-01-01T06:27:04.144Z,1004.36
2023-01-01T06:27:36.630Z,1004.38
2023-01-01T06:28:09.125Z,1004.38
2023-01-01T06:28:41.627Z,1004.39
2023-01-01T06:29:14.103Z,1004.42
2023-01-01T06:29:46.535Z,1004.40
2023-01-01T06:30:19.031Z,1004.45
2023-01-01T06:30:51.540Z,1004.39
2023-01-01T06:31:23.954Z,1004.38
2023-01-01T06:31:56.406Z,1004.41
2023-01-01T06:32:28.909Z,1004.43
2023-01-01T06:33:01.408Z,1004.41
2023-01-01T06:33:33.902Z,1004.40
2023-01-01T06:34:06.408Z,1004.42
2023-01-01T06:34:38.920Z,1004.39
2023-01-01T06:35:11.456Z,1004.45
2023-01-01T06:35:43.947Z,1004.41
2023-01-01T06:36:16.484Z,1004.43
2023-01-01T06:36:49.066Z,1004.41
2023-01-01T06:37:21.663Z,1004.39
2023-01-01T06:37:54.262Z,1004.42
2023-01-01T06:38:26.857Z,1004.40
2023-01-01T06:38:59.299Z,1004.42
2023-01-01T06:39:31.871Z,1004.43
2023-01-01T06:40:04.432Z,1004.49
2023-01-01T06:40:36.924Z,1004.41